createdAt,value
2018-08-09T03:57:39.840Z,85.65
2018-08-09T04:03:06.442Z,86.39
2018-08-09T04:05:35.332Z,87.65
2018-08-09T04:08:04.029Z,90.02
2018-08-09T04:10:33.056Z,89.30
2018-08-09T04:13:02.218Z,86.90
2018-08-09T04:15:31.046Z,85.39
2018-08-09T04:18:00.187Z,79.64
2018-08-09T04:20:29.154Z,82.57
2018-08-09T04:22:58.186Z,82.60
2018-08-09T04:25:27.277Z,76.86
2018-08-09T04:27:56.183Z,77.29
2018-08-09T04:30:25.061Z,82.56
2018-08-09T04:32:54.364Z,85.14
2018-08-09T04:35:23.464Z,85.72
2018-08-09T04:37:52.357Z,86.23
2018-08-09T04:40:21.451Z,84.72
2018-08-09T04:42:50.332Z,80.94
2018-08-09T04:45:19.438Z,77.86
2018-08-09T04:47:48.323Z,78.86
2018-08-09T04:50:17.332Z,83.75
2018-08-09T04:52:46.110Z,84.76
2018-08-09T04:55:15.205Z,84.31
2018-08-09T04:57:44.085Z,83.33
2018-08-09T05:00:12.986Z,82.19
2018-08-09T05:02:41.877Z,82.66
2018-08-09T05:05:10.905Z,79.74
2018-08-09T05:07:40.037Z,82.45
2018-08-09T05:10:10.224Z,81.48
2018-08-09T05:12:41.085Z,80.48
2018-08-09T05:15:09.962Z,81.46
2018-08-09T05:17:38.757Z,79.92
2018-08-09T05:20:07.933Z,79.17
2018-08-09T05:22:37.101Z,75.84
2018-08-09T05:25:07.015Z,72.00
2018-08-09T05:27:36.020Z,75.81
2018-08-09T05:30:05.882Z,79.83
2018-08-09T05:32:34.700Z,77.09
2018-08-09T05:35:03.577Z,76.29
2018-08-09T05:37:32.535Z,78.10
2018-08-09T05:40:01.549Z,77.05
2018-08-09T05:42:30.412Z,75.34
2018-08-09T05:44:59.364Z,71.34
2018-08-09T05:47:28.281Z,73.49
2018-08-09T05:49:57.355Z,72.30
2018-08-09T05:52:26.308Z,70.40
2018-08-09T05:54:55.344Z,70.94
2018-08-09T05:57:24.225Z,70.24
2018-08-09T05:59:53.504Z,70.86
2018-08-09T06:02:22.361Z,71.83
2018-08-09T06:04:51.309Z,70.54
2018-08-09T06:07:20.280Z,69.14
2018-08-09T06:09:49.245Z,67.67
2018-08-09T06:12:18.125Z,68.21
2018-08-09T06:14:47.228Z,68.76
2018-08-09T06:17:16.380Z,67.54
2018-08-09T06:19:45.405Z,67.79
2018-08-09T06:22:14.778Z,67.82
2018-08-09T06:24:43.842Z,67.82
2018-08-09T06:27:12.755Z,67.74
2018-08-09T06:29:41.860Z,67.10
2018-08-09T06:32:10.955Z,67.58
2018-08-09T06:34:39.775Z,65.63
2018-08-09T06:37:08.757Z,65.85
2018-08-09T06:39:37.552Z,66.64
2018-08-09T06:42:06.497Z,67.26
2018-08-09T06:44:35.612Z,64.87
2018-08-09T06:47:04.531Z,65.35
2018-08-09T06:49:33.408Z,66.10
2018-08-09T06:52:02.646Z,64.68
2018-08-09T06:54:31.464Z,65.04
2018-08-09T06:57:00.886Z,64.60
2018-08-09T06:59:30.186Z,65.19
2018-08-09T07:01:59.189Z,63.69
2018-08-09T07:04:28.581Z,63.52
2018-08-09T07:06:57.307Z,63.27
2018-08-09T07:09:26.363Z,63.39
2018-08-09T07:11:55.221Z,64.47
2018-08-09T07:14:24.139Z,63.88
2018-08-09T07:16:52.825Z,63.02
2018-08-09T07:19:21.657Z,61.74
2018-08-09T07:21:50.645Z,62.28
2018-08-09T07:24:19.492Z,61.95
2018-08-09T07:26:48.594Z,62.68
2018-08-09T07:29:17.737Z,62.77
2018-08-09T07:31:46.838Z,62.25
2018-08-09T07:34:15.674Z,61.92
2018-08-09T07:36:45.800Z,60.96
2018-08-09T07:39:14.753Z,61.72
2018-08-09T07:41:43.614Z,61.15
2018-08-09T07:44:13.195Z,62.58
2018-08-09T07:46:42.160Z,61.44
2018-08-09T07:49:11.252Z,61.75
2018-08-09T07:51:40.167Z,62.15
2018-08-09T07:54:09.232Z,62.43
2018-08-09T07:56:38.354Z,61.39
2018-08-09T07:59:07.067Z,60.35
2018-08-09T08:01:36.108Z,62.15
2018-08-09T08:04:05.066Z,62.45
2018-08-09T08:06:33.922Z,62.01
2018-08-09T08:09:03.206Z,60.77
2018-08-09T08:11:32.252Z,61.70
2018-08-09T08:14:01.394Z,61.15
2018-08-09T08:16:30.509Z,61.84
2018-08-09T08:18:59.770Z,60.55
2018-08-09T08:21:28.626Z,61.51
2018-08-09T08:23:57.784Z,62.09
2018-08-09T08:26:26.881Z,62.75
2018-08-09T08:28:55.773Z,63.47
2018-08-09T08:31:24.731Z,62.47
2018-08-09T08:33:53.745Z,61.93
2018-08-09T08:36:22.917Z,61.56
2018-08-09T08:38:51.963Z,61.57
2018-08-09T08:41:20.909Z,62.62
2018-08-09T08:43:49.700Z,61.05
2018-08-09T08:46:18.777Z,61.27
2018-08-09T08:48:47.773Z,62.03
2018-08-09T08:51:16.890Z,60.58
2018-08-09T08:53:45.708Z,62.64
2018-08-09T08:56:14.593Z,62.39
2018-08-09T08:58:43.768Z,61.99
2018-08-09T09:01:13.175Z,61.91
2018-08-09T09:03:42.506Z,60.55
2018-08-09T09:06:11.416Z,61.37
2018-08-09T09:08:40.352Z,61.10
2018-08-09T09:11:09.374Z,62.04
2018-08-09T09:13:38.263Z,60.35
2018-08-09T09:16:07.576Z,60.38
2018-08-09T09:18:36.520Z,60.56
2018-08-09T09:21:05.735Z,59.64
2018-08-09T09:23:34.650Z,60.49
2018-08-09T09:26:03.545Z,61.08
2018-08-09T09:28:32.432Z,60.32
2018-08-09T09:31:01.533Z,59.67
2018-08-09T09:33:30.627Z,59.53
2018-08-09T09:35:59.714Z,60.42
2018-08-09T09:38:28.605Z,58.24
2018-08-09T09:40:57.712Z,59.97
2018-08-09T09:43:26.524Z,59.12
2018-08-09T09:45:55.276Z,58.57
2018-08-09T09:48:24.383Z,59.82
2018-08-09T09:50:53.262Z,58.82
2018-08-09T09:53:22.546Z,59.29
2018-08-09T09:55:51.643Z,58.82
2018-08-09T09:58:20.548Z,59.52
2018-08-09T10:00:54.919Z,58.98
2018-08-09T10:03:24.075Z,58.55
2018-08-09T10:05:52.952Z,56.89
2018-08-09T10:08:22.045Z,55.57
2018-08-09T10:10:50.951Z,56.75
2018-08-09T10:13:20.048Z,57.08
2018-08-09T10:15:55.901Z,56.67
2018-08-09T10:18:24.997Z,56.27
2018-08-09T10:20:53.887Z,56.72
2018-08-09T10:23:22.775Z,55.29
2018-08-09T10:25:51.867Z,57.04
2018-08-09T10:28:21.174Z,55.28
2018-08-09T10:30:50.042Z,56.05
2018-08-09T10:33:19.135Z,55.18
2018-08-09T10:35:48.257Z,54.74
2018-08-09T10:38:17.145Z,52.44
2018-08-09T10:40:46.031Z,50.54
2018-08-09T10:43:15.136Z,49.67
2018-08-09T10:45:44.217Z,49.91
2018-08-09T10:48:13.109Z,48.65
2018-08-09T10:50:42.206Z,47.11
2018-08-09T10:53:11.039Z,47.58
2018-08-09T10:55:40.178Z,46.10
2018-08-09T10:58:09.378Z,46.09
2018-08-09T11:00:38.388Z,45.51
2018-08-09T11:03:07.480Z,45.55
2018-08-09T11:05:36.526Z,45.49
2018-08-09T11:08:05.686Z,44.79
2018-08-09T11:10:34.536Z,43.09
2018-08-09T11:13:03.665Z,42.70
2018-08-09T11:15:32.549Z,43.53
2018-08-09T11:18:01.441Z,43.02
2018-08-09T11:20:30.542Z,42.94
2018-08-09T11:22:59.568Z,40.27
2018-08-09T11:25:28.681Z,39.33
2018-08-09T11:27:57.620Z,40.92
2018-08-09T11:30:26.465Z,41.12
2018-08-09T11:32:55.560Z,39.44
2018-08-09T11:35:24.502Z,40.49
2018-08-09T11:37:53.392Z,39.90
2018-08-09T11:40:22.281Z,40.03
2018-08-09T11:42:51.166Z,39.75
2018-08-09T11:45:20.267Z,38.95
2018-08-09T11:47:49.153Z,39.06
2018-08-09T11:50:18.828Z,35.88
2018-08-09T11:52:47.919Z,38.22
2018-08-09T11:55:17.054Z,38.55
2018-08-09T11:57:46.154Z,37.63
2018-08-09T12:00:15.250Z,37.60
2018-08-09T12:02:44.440Z,38.47
2018-08-09T12:05:13.379Z,38.57
2018-08-09T12:07:42.373Z,36.90
2018-08-09T12:10:11.213Z,38.00
2018-08-09T12:12:40.319Z,37.61
2018-08-09T12:15:09.372Z,38.31
2018-08-09T12:17:38.299Z,36.70
2018-08-09T12:20:07.650Z,35.72
2018-08-09T12:22:36.576Z,31.91
2018-08-09T12:25:06.191Z,31.09
2018-08-09T12:27:35.292Z,30.68
2018-08-09T12:30:05.698Z,30.76
2018-08-09T12:32:34.394Z,34.12
2018-08-09T12:35:03.352Z,30.08
2018-08-09T12:37:32.473Z,29.67
2018-08-09T12:40:01.381Z,31.84
2018-08-09T12:42:30.274Z,32.57
2018-08-09T12:45:01.996Z,31.28
2018-08-09T12:47:31.192Z,31.85
2018-08-09T12:50:00.221Z,34.11
2018-08-09T12:52:29.090Z,32.51
2018-08-09T12:54:58.217Z,33.50
2018-08-09T12:57:27.110Z,33.54
2018-08-09T12:59:56.066Z,34.41
2018-08-09T13:02:25.300Z,34.25
2018-08-09T13:04:54.396Z,33.63
2018-08-09T13:07:23.128Z,33.17
2018-08-09T13:09:51.971Z,32.79
2018-08-09T13:12:21.000Z,32.67
2018-08-09T13:14:49.954Z,31.96
2018-08-09T13:17:18.794Z,29.13
2018-08-09T13:19:48.111Z,30.05
2018-08-09T13:22:17.304Z,25.72
2018-08-09T13:24:48.327Z,28.35
2018-08-09T13:27:17.637Z,29.61
2018-08-09T13:29:46.580Z,28.24
2018-08-09T13:32:15.676Z,29.21
2018-08-09T13:34:44.770Z,28.49
2018-08-09T13:37:13.640Z,26.82
2018-08-09T13:39:42.559Z,27.71
2018-08-09T13:42:11.990Z,26.90
2018-08-09T13:44:40.951Z,24.23
2018-08-09T13:47:11.353Z,22.68
2018-08-09T13:49:40.364Z,23.03
2018-08-09T13:52:09.563Z,27.04
2018-08-09T13:55:42.006Z,25.29
2018-08-09T13:58:13.137Z,25.18
2018-08-09T14:00:44.866Z,25.25
2018-08-09T14:03:13.830Z,23.63
2018-08-09T14:05:43.014Z,21.58
2018-08-09T14:08:11.760Z,24.58
2018-08-09T14:10:41.109Z,21.22
2018-08-09T14:13:10.017Z,21.13
2018-08-09T14:15:39.316Z,21.10
2018-08-09T14:18:08.211Z,21.98
2018-08-09T14:20:37.305Z,23.21
2018-08-09T14:23:06.579Z,25.20
2018-08-09T14:25:35.904Z,24.80
2018-08-09T14:28:06.302Z,24.55
2018-08-09T14:30:35.324Z,23.15
2018-08-09T14:33:09.890Z,23.94
2018-08-09T14:35:39.567Z,22.76
2018-08-09T14:38:08.547Z,23.11
2018-08-09T14:40:37.621Z,23.35
2018-08-09T14:43:06.567Z,23.17
2018-08-09T14:45:35.684Z,23.84
2018-08-09T14:48:04.661Z,22.24
2018-08-09T14:50:34.235Z,24.09
2018-08-09T14:53:03.329Z,23.71
2018-08-09T14:55:32.426Z,21.79
2018-08-09T14:58:01.292Z,22.40
2018-08-09T15:00:31.026Z,24.82
2018-08-09T15:02:59.915Z,24.06
2018-08-09T15:05:31.778Z,23.50
2018-08-09T15:08:00.709Z,23.12
2018-08-09T15:10:30.052Z,23.79
2018-08-09T15:12:58.991Z,25.58
2018-08-09T15:15:28.306Z,24.63
2018-08-09T15:17:57.692Z,24.58
2018-08-09T15:20:26.661Z,26.63
2018-08-09T15:22:55.710Z,26.47
2018-08-09T15:25:24.604Z,28.47
2018-08-09T15:27:53.717Z,29.60
2018-08-09T15:30:22.890Z,31.40
2018-08-09T15:32:51.657Z,32.94
2018-08-09T15:35:20.819Z,32.22
2018-08-09T15:37:49.889Z,33.97
2018-08-09T15:40:18.807Z,33.35
2018-08-09T15:42:47.643Z,33.14
2018-08-09T15:45:17.061Z,33.94
2018-08-09T15:47:45.957Z,35.05
2018-08-09T15:50:18.384Z,34.74
2018-08-09T15:52:47.535Z,33.76
2018-08-09T15:55:17.614Z,34.11
2018-08-09T15:57:46.531Z,35.09
2018-08-09T16:00:19.855Z,34.06
2018-08-09T16:02:48.788Z,34.56
2018-08-09T16:05:18.117Z,34.49
2018-08-09T16:07:47.667Z,34.57
2018-08-09T16:10:17.571Z,35.70
2018-08-09T16:12:47.188Z,35.30
2018-08-09T16:15:18.429Z,35.20
2018-08-09T16:17:47.937Z,35.39
2018-08-09T16:20:17.500Z,34.92
2018-08-09T16:22:47.336Z,34.49
2018-08-09T16:25:18.881Z,34.59
2018-08-09T16:27:48.472Z,35.74
2018-08-09T16:30:19.489Z,34.95
2018-08-09T16:32:48.433Z,36.99
2018-08-09T16:35:17.498Z,37.84
2018-08-09T16:37:46.802Z,34.41
2018-08-09T16:40:19.017Z,37.05
2018-08-09T16:42:48.193Z,37.53
2018-08-09T16:45:18.443Z,35.76
2018-08-09T16:47:47.880Z,36.68
2018-08-09T16:50:18.997Z,36.10
2018-08-09T16:52:48.613Z,36.55
2018-08-09T16:55:18.304Z,36.50
2018-08-09T16:57:47.286Z,36.79
2018-08-09T17:00:18.025Z,36.79
2018-08-09T17:02:47.178Z,36.71
2018-08-09T17:05:19.472Z,37.14
2018-08-09T17:07:48.903Z,35.69
2018-08-09T17:10:19.200Z,36.81
2018-08-09T17:12:48.058Z,35.83
2018-08-09T17:18:53.028Z,37.18
2018-08-09T17:21:29.066Z,37.52
2018-08-09T17:23:57.888Z,37.30
2018-08-09T17:26:27.004Z,37.09
2018-08-09T17:28:56.311Z,37.35
2018-08-09T17:31:25.616Z,36.34
2018-08-09T17:33:54.525Z,36.41
2018-08-09T17:36:23.802Z,36.82
2018-08-09T17:38:52.590Z,37.10
2018-08-09T17:41:21.583Z,37.04
2018-08-09T17:43:51.642Z,38.37
2018-08-09T17:46:21.773Z,37.13
2018-08-09T17:48:50.848Z,37.83
2018-08-09T17:51:19.804Z,38.38
2018-08-09T17:53:48.699Z,39.12
2018-08-09T17:56:17.797Z,38.69
2018-08-09T17:58:46.838Z,38.58
2018-08-09T18:01:15.854Z,37.50
2018-08-09T18:03:44.662Z,37.95
2018-08-09T18:06:13.772Z,38.51
2018-08-09T18:08:42.853Z,39.54
2018-08-09T18:11:11.956Z,39.50
2018-08-09T18:13:40.913Z,38.59
2018-08-09T18:16:09.902Z,39.55
2018-08-09T18:18:39.040Z,39.48
2018-08-09T18:21:08.311Z,39.68
2018-08-09T18:23:37.848Z,39.87
2018-08-09T18:26:07.045Z,39.79
2018-08-09T18:28:36.238Z,41.12
2018-08-09T18:31:05.370Z,40.50
2018-08-09T18:33:34.641Z,40.81
2018-08-09T18:36:04.067Z,40.66
2018-08-09T18:38:33.176Z,41.51
2018-08-09T18:41:03.142Z,42.36
2018-08-09T18:43:32.635Z,40.96
2018-08-09T18:46:01.537Z,41.72
2018-08-09T18:48:31.098Z,40.97
2018-08-09T18:51:00.355Z,41.18
2018-08-09T18:53:29.453Z,41.86
2018-08-09T18:55:58.750Z,40.60
2018-08-09T18:58:27.637Z,41.74
2018-08-09T19:00:56.944Z,41.24
2018-08-09T19:03:26.014Z,41.62
2018-08-09T19:05:55.307Z,41.96
2018-08-09T19:08:24.431Z,41.96
2018-08-09T19:10:53.453Z,42.14
2018-08-09T19:13:22.620Z,42.17
2018-08-09T19:15:52.150Z,42.08
2018-08-09T19:18:21.016Z,42.50
2018-08-09T19:20:50.110Z,42.37
2018-08-09T19:23:19.272Z,42.00
2018-08-09T19:25:48.303Z,42.44
2018-08-09T19:28:17.398Z,43.06
2018-08-09T19:30:46.496Z,42.95
2018-08-09T19:33:15.580Z,42.24
2018-08-09T19:35:50.327Z,42.32
2018-08-09T19:38:19.700Z,45.63
2018-08-09T19:40:50.889Z,47.90
2018-08-09T19:43:19.952Z,50.69
2018-08-09T19:45:49.250Z,52.93
2018-08-09T19:48:18.118Z,55.05
2018-08-09T19:50:47.764Z,56.31
2018-08-09T19:53:16.548Z,57.72
2018-08-09T19:55:48.025Z,59.12
2018-08-09T19:58:17.193Z,60.65
2018-08-09T20:00:46.072Z,61.72
2018-08-09T20:03:14.975Z,63.50
2018-08-09T20:05:44.281Z,69.90
2018-08-09T20:08:43.771Z,79.35
2018-08-09T20:11:13.195Z,86.07
2018-08-09T20:13:42.089Z,97.83
2018-08-09T20:16:11.173Z,95.31
2018-08-09T20:18:41.385Z,98.80
2018-08-09T20:21:10.780Z,93.77
2018-08-09T20:23:39.895Z,95.88
2018-08-09T20:26:09.199Z,100.00
2018-08-09T20:28:38.509Z,100.00
2018-08-09T20:31:07.737Z,100.00
2018-08-09T20:33:36.792Z,100.00
2018-08-09T20:36:05.874Z,93.71
2018-08-09T20:38:35.297Z,100.00
2018-08-09T20:41:04.622Z,94.69
2018-08-09T20:43:33.529Z,98.12
2018-08-09T20:46:02.394Z,94.92
2018-08-09T20:48:31.313Z,93.14
2018-08-09T20:51:00.480Z,90.88
2018-08-09T20:53:29.632Z,87.28
2018-08-09T20:55:58.594Z,100.00
2018-08-09T20:58:27.649Z,100.00
2018-08-09T21:00:56.745Z,99.48
2018-08-09T21:03:25.837Z,100.00
2018-08-09T21:05:55.007Z,100.00
2018-08-09T21:08:25.134Z,94.50
2018-08-09T21:10:54.762Z,100.00
2018-08-09T21:13:23.702Z,94.62
2018-08-09T21:15:53.019Z,100.00
2018-08-09T21:18:22.209Z,100.00
2018-08-09T21:20:51.346Z,100.00
2018-08-09T21:23:20.150Z,97.93
2018-08-09T21:25:49.331Z,99.71
2018-08-09T21:28:18.840Z,100.00
2018-08-09T21:30:47.913Z,97.11
2018-08-09T21:33:19.156Z,93.25
2018-08-09T21:35:48.441Z,95.61
2018-08-09T21:38:18.474Z,98.41
2018-08-09T21:40:50.390Z,100.00
2018-08-09T21:43:21.453Z,100.00
2018-08-09T21:45:50.496Z,100.00
2018-08-09T21:48:20.245Z,100.00
2018-08-09T21:50:49.620Z,100.00
2018-08-09T21:53:19.385Z,100.00
2018-08-09T21:55:48.988Z,100.00
2018-08-09T21:58:17.993Z,99.12
2018-08-09T22:00:58.996Z,100.00
2018-08-09T22:03:30.802Z,100.00
2018-08-09T22:06:05.403Z,100.00
2018-08-09T22:08:39.802Z,100.00
2018-08-09T22:11:15.902Z,100.00
2018-08-09T22:13:53.388Z,99.42
2018-08-09T22:16:28.093Z,100.00
2018-08-09T22:19:02.500Z,100.00
2018-08-09T22:21:36.512Z,100.00
2018-08-09T22:24:05.853Z,99.96
2018-08-09T22:26:34.700Z,100.00
2018-08-09T22:29:03.799Z,100.00
2018-08-09T22:31:32.891Z,100.00
2018-08-09T22:34:01.997Z,100.00
2018-08-09T22:36:31.084Z,97.53
2018-08-09T22:39:00.173Z,92.76
2018-08-09T22:41:29.218Z,90.45
2018-08-09T22:43:58.383Z,94.18
2018-08-09T22:46:27.405Z,93.59
2018-08-09T22:48:56.961Z,91.69
2018-08-09T22:51:26.034Z,97.66
2018-08-09T22:54:01.505Z,98.01
2018-08-09T22:56:30.457Z,99.17
2018-08-09T22:58:59.702Z,97.08
2018-08-09T23:01:28.794Z,93.38
2018-08-09T23:03:57.896Z,98.45
2018-08-09T23:06:28.228Z,94.28
2018-08-09T23:08:57.527Z,89.77
2018-08-09T23:11:26.717Z,95.85
2018-08-09T23:13:55.654Z,89.79
2018-08-09T23:16:24.572Z,99.25
2018-08-09T23:18:54.037Z,91.68
2018-08-09T23:21:22.998Z,93.96
2018-08-09T23:23:52.443Z,97.82
2018-08-09T23:26:21.786Z,97.16
2018-08-09T23:29:21.005Z,87.75
2018-08-09T23:31:50.093Z,89.63
2018-08-09T23:34:19.190Z,89.63
2018-08-09T23:36:48.848Z,92.54
2018-08-09T23:39:18.003Z,97.03
2018-08-09T23:41:46.889Z,98.05
2018-08-09T23:44:15.660Z,97.81
2018-08-09T23:46:44.670Z,90.16
2018-08-09T23:49:13.480Z,93.23
2018-08-09T23:51:42.299Z,97.50
2018-08-09T23:54:11.416Z,100.00
2018-08-09T23:56:40.224Z,100.00
2018-08-09T23:59:09.535Z,100.00
